createdAt,value
2023-03-27T00:02:01.435Z,3.40
2023-03-27T00:04:34.344Z,3.72
2023-03-27T00:07:04.095Z,4.03
2023-03-27T00:09:34.649Z,3.83
2023-03-27T00:12:04.339Z,3.17
2023-03-27T00:14:34.864Z,3.83
2023-03-27T00:17:05.349Z,4.75
2023-03-27T00:19:38.977Z,3.80
2023-03-27T00:22:09.642Z,3.75
2023-03-27T00:24:39.306Z,3.95
2023-03-27T00:27:09.353Z,3.22
2023-03-27T00:29:39.975Z,3.65
2023-03-27T00:32:10.049Z,3.65
2023-03-27T00:34:42.365Z,4.10
2023-03-27T00:37:13.149Z,3.40
2023-03-27T00:39:43.215Z,3.97
2023-03-27T00:42:15.249Z,2.88
2023-03-27T00:44:45.039Z,3.67
2023-03-27T00:47:15.182Z,2.63
2023-03-27T00:49:48.835Z,4.10
2023-03-27T00:52:21.565Z,3.42
2023-03-27T00:54:52.415Z,3.70
2023-03-27T00:57:22.452Z,3.85
2023-03-27T00:59:53.273Z,4.07
2023-03-27T01:02:23.498Z,2.90
2023-03-27T01:04:57.247Z,2.83
2023-03-27T01:07:28.886Z,3.00
2023-03-27T01:09:58.657Z,3.13
2023-03-27T01:12:37.123Z,3.20
2023-03-27T01:15:14.309Z,3.03
2023-03-27T01:17:49.788Z,3.55
2023-03-27T01:20:34.431Z,4.20
2023-03-27T01:23:35.380Z,4.20
2023-03-27T01:26:17.842Z,4.18
2023-03-27T01:29:07.902Z,4.35
2023-03-27T01:31:44.149Z,4.78
2023-03-27T01:34:31.274Z,4.18
2023-03-27T01:37:12.853Z,4.30
2023-03-27T01:39:50.422Z,3.75
2023-03-27T01:42:22.535Z,4.43
2023-03-27T01:44:54.516Z,4.47
2023-03-27T01:47:39.545Z,4.07
2023-03-27T01:50:13.876Z,4.63
2023-03-27T01:52:46.033Z,4.80
2023-03-27T01:55:20.375Z,3.85
2023-03-27T01:57:53.225Z,4.35
2023-03-27T02:00:24.779Z,4.03
2023-03-27T02:03:09.452Z,3.30
2023-03-27T02:05:42.831Z,4.05
2023-03-27T02:08:14.664Z,3.58
2023-03-27T02:10:50.924Z,3.45
2023-03-27T02:13:22.786Z,4.05
2023-03-27T02:15:53.474Z,3.67
2023-03-27T02:18:25.978Z,3.20
2023-03-27T02:20:55.827Z,3.38
2023-03-27T02:23:25.843Z,4.00
2023-03-27T02:25:58.160Z,3.63
2023-03-27T02:28:37.021Z,4.03
2023-03-27T02:31:33.020Z,3.85
2023-03-27T02:34:09.798Z,3.30
2023-03-27T02:36:43.649Z,4.13
2023-03-27T02:39:16.952Z,3.90
2023-03-27T02:41:53.533Z,3.95
2023-03-27T02:44:46.532Z,3.20
2023-03-27T02:47:19.556Z,3.75
2023-03-27T02:49:51.577Z,4.30
2023-03-27T02:52:23.307Z,3.67
2023-03-27T02:54:55.613Z,4.15
2023-03-27T02:57:32.117Z,4.30
2023-03-27T03:00:25.791Z,4.93
2023-03-27T03:03:19.663Z,4.72
2023-03-27T03:05:58.777Z,4.85
2023-03-27T03:08:30.797Z,4.72
2023-03-27T03:11:06.411Z,5.95
2023-03-27T03:13:39.418Z,6.22
2023-03-27T03:16:10.264Z,6.30
2023-03-27T03:18:40.073Z,6.28
2023-03-27T03:21:10.670Z,5.35
2023-03-27T03:23:40.385Z,6.22
2023-03-27T03:26:10.389Z,7.32
2023-03-27T03:29:00.231Z,7.00
2023-03-27T03:31:44.618Z,7.85
2023-03-27T03:34:16.480Z,6.18
2023-03-27T03:36:49.760Z,7.80
2023-03-27T03:39:24.887Z,8.63
2023-03-27T03:41:55.728Z,6.90
2023-03-27T03:44:28.123Z,7.78
2023-03-27T03:46:59.288Z,6.15
2023-03-27T03:49:29.066Z,7.85
2023-03-27T03:52:04.447Z,8.35
2023-03-27T03:54:38.850Z,8.25
2023-03-27T03:57:09.061Z,8.63
2023-03-27T03:59:41.709Z,11.35
2023-03-27T04:02:31.382Z,10.95
2023-03-27T04:05:08.581Z,9.68
2023-03-27T04:07:42.568Z,10.35
2023-03-27T04:10:24.556Z,10.65
2023-03-27T04:12:54.545Z,10.85
2023-03-27T04:15:39.611Z,11.35
2023-03-27T04:18:24.887Z,11.50
2023-03-27T04:20:55.588Z,10.98
2023-03-27T04:23:33.431Z,11.93
2023-03-27T04:26:04.533Z,11.63
2023-03-27T04:28:54.414Z,10.60
2023-03-27T04:31:49.539Z,10.77
2023-03-27T04:34:40.018Z,13.07
2023-03-27T04:37:23.106Z,10.23
2023-03-27T04:40:30.866Z,7.63
2023-03-27T04:43:01.397Z,10.60
2023-03-27T04:45:32.582Z,10.90
2023-03-27T04:48:06.660Z,11.82
2023-03-27T04:50:40.561Z,10.98
2023-03-27T04:53:12.877Z,13.15
2023-03-27T04:55:47.926Z,14.52
2023-03-27T04:58:18.303Z,14.48
2023-03-27T05:00:50.663Z,11.95
2023-03-27T05:03:46.242Z,12.95
2023-03-27T05:06:23.647Z,15.48
2023-03-27T05:08:53.680Z,19.05
2023-03-27T05:11:28.860Z,20.40
2023-03-27T05:13:58.518Z,23.20
2023-03-27T05:16:30.614Z,9.52
2023-03-27T05:19:06.605Z,14.60
2023-03-27T05:21:43.021Z,15.55
2023-03-27T05:24:14.146Z,8.30
2023-03-27T05:26:43.909Z,9.73
2023-03-27T05:29:14.323Z,9.52
2023-03-27T05:31:47.856Z,7.35
2023-03-27T05:34:38.875Z,7.07
2023-03-27T05:37:12.657Z,5.57
2023-03-27T05:40:02.629Z,4.53
2023-03-27T05:42:33.052Z,4.18
2023-03-27T05:45:02.759Z,4.65
2023-03-27T05:47:32.542Z,3.20
2023-03-27T05:50:05.224Z,2.90
2023-03-27T05:52:35.225Z,3.42
2023-03-27T05:55:06.818Z,3.10
2023-03-27T05:57:41.488Z,2.85
2023-03-27T06:00:14.142Z,3.60
2023-03-27T06:02:46.529Z,5.00
2023-03-27T06:05:21.650Z,4.88
2023-03-27T06:07:53.904Z,4.07
2023-03-27T06:10:23.642Z,3.97
2023-03-27T06:13:00.742Z,4.18
2023-03-27T06:15:38.111Z,5.28
2023-03-27T06:18:20.037Z,6.03
2023-03-27T06:20:52.979Z,5.40
2023-03-27T06:23:22.902Z,4.50
2023-03-27T06:25:53.305Z,4.15
2023-03-27T06:28:26.382Z,5.47
2023-03-27T06:30:57.918Z,4.18
2023-03-27T06:33:38.654Z,5.85
2023-03-27T06:36:12.835Z,4.53
2023-03-27T06:38:44.435Z,4.70
2023-03-27T06:41:14.178Z,4.18
2023-03-27T06:44:02.255Z,3.95
2023-03-27T06:46:45.254Z,3.13
2023-03-27T06:49:36.119Z,3.60
2023-03-27T06:52:16.582Z,3.08
2023-03-27T06:54:47.885Z,3.97
2023-03-27T06:57:18.617Z,3.40
2023-03-27T07:00:02.845Z,4.30
2023-03-27T07:03:03.030Z,2.90
2023-03-27T07:05:53.851Z,6.68
2023-03-27T07:08:26.906Z,4.28
2023-03-27T07:11:10.716Z,3.92
2023-03-27T07:13:46.213Z,5.90
2023-03-27T07:16:24.154Z,6.25
2023-03-27T07:18:54.010Z,6.80
2023-03-27T07:21:23.933Z,5.70
2023-03-27T07:23:56.286Z,5.80
2023-03-27T07:26:36.023Z,6.38
2023-03-27T07:31:59.707Z,5.47
2023-03-27T07:34:40.256Z,4.53
2023-03-27T07:37:28.275Z,4.65
2023-03-27T07:40:29.530Z,6.63
2023-03-27T07:45:56.124Z,4.50
2023-03-27T07:48:28.123Z,8.25
2023-03-27T07:51:10.749Z,8.40
2023-03-27T07:53:43.819Z,11.05
2023-03-27T07:56:26.744Z,9.70
2023-03-27T07:59:23.373Z,9.07
2023-03-27T08:01:53.599Z,9.50
2023-03-27T08:04:27.546Z,9.40
2023-03-27T08:07:11.877Z,8.15
2023-03-27T08:09:44.782Z,5.60
2023-03-27T08:12:17.524Z,6.35
2023-03-27T08:14:58.103Z,5.32
2023-03-27T08:17:30.650Z,7.53
2023-03-27T08:20:02.315Z,4.53
2023-03-27T08:22:34.287Z,6.00
2023-03-27T08:25:26.895Z,6.97
2023-03-27T08:28:02.114Z,5.70
2023-03-27T08:30:32.061Z,6.68
2023-03-27T08:33:02.613Z,6.40
2023-03-27T08:35:32.840Z,6.22
2023-03-27T08:38:03.875Z,6.90
2023-03-27T08:40:59.176Z,4.88
2023-03-27T08:43:44.240Z,7.72
2023-03-27T08:46:19.655Z,5.82
2023-03-27T08:48:53.757Z,8.40
2023-03-27T08:51:28.398Z,7.20
2023-03-27T08:54:00.150Z,7.20
2023-03-27T08:56:32.659Z,6.90
2023-03-27T08:59:05.966Z,7.53
2023-03-27T09:01:41.359Z,8.18
2023-03-27T09:04:20.693Z,5.20
2023-03-27T09:06:57.421Z,4.32
2023-03-27T09:09:34.814Z,6.10
2023-03-27T09:12:09.415Z,6.07
2023-03-27T09:14:46.340Z,7.97
2023-03-27T09:17:20.087Z,4.25
2023-03-27T09:19:53.400Z,7.70
2023-03-27T09:22:29.669Z,5.65
2023-03-27T09:25:11.220Z,5.47
2023-03-27T09:28:17.273Z,8.40
2023-03-27T09:30:56.119Z,5.90
2023-03-27T09:33:31.423Z,8.25
2023-03-27T09:36:02.008Z,7.55
2023-03-27T09:38:33.473Z,7.07
2023-03-27T09:41:07.096Z,8.55
2023-03-27T09:43:42.718Z,7.15
2023-03-27T09:46:19.604Z,7.95
2023-03-27T09:48:59.163Z,6.10
2023-03-27T09:51:39.392Z,6.53
2023-03-27T09:54:17.119Z,7.43
2023-03-27T09:56:49.391Z,6.70
2023-03-27T09:59:25.322Z,6.05
2023-03-27T10:01:58.644Z,5.13
2023-03-27T10:04:30.352Z,5.18
2023-03-27T10:07:05.637Z,4.55
2023-03-27T10:10:05.761Z,4.90
2023-03-27T10:12:40.965Z,5.45
2023-03-27T10:15:29.077Z,4.20
2023-03-27T10:18:01.958Z,3.60
2023-03-27T10:20:31.771Z,4.18
2023-03-27T10:23:03.527Z,4.13
2023-03-27T10:25:38.258Z,4.47
2023-03-27T10:28:26.200Z,4.10
2023-03-27T10:31:14.022Z,4.93
2023-03-27T10:33:59.754Z,4.13
2023-03-27T10:37:01.797Z,4.10
2023-03-27T10:39:32.910Z,4.15
2023-03-27T10:42:12.544Z,4.47
2023-03-27T10:44:48.513Z,3.97
2023-03-27T10:47:19.974Z,4.13
2023-03-27T10:49:58.149Z,3.72
2023-03-27T10:52:37.075Z,3.42
2023-03-27T10:55:21.056Z,2.72
2023-03-27T10:57:54.825Z,3.17
2023-03-27T11:00:32.945Z,4.80
2023-03-27T11:03:07.253Z,3.80
2023-03-27T11:05:41.660Z,4.07
2023-03-27T11:08:19.818Z,4.70
2023-03-27T11:10:51.192Z,2.38
2023-03-27T11:13:30.962Z,4.18
2023-03-27T11:16:14.943Z,2.80
2023-03-27T11:19:07.740Z,3.78
2023-03-27T11:21:49.034Z,4.22
2023-03-27T11:24:28.924Z,4.28
2023-03-27T11:27:06.189Z,3.50
2023-03-27T11:29:38.783Z,4.07
2023-03-27T11:32:16.371Z,4.53
2023-03-27T11:34:53.228Z,4.20
2023-03-27T11:37:53.957Z,4.13
2023-03-27T11:40:27.310Z,3.17
2023-03-27T11:43:04.491Z,2.55
2023-03-27T11:45:40.749Z,3.88
2023-03-27T11:48:19.207Z,3.70
2023-03-27T11:50:55.304Z,3.55
2023-03-27T11:53:34.634Z,3.50
2023-03-27T11:56:20.954Z,3.33
2023-03-27T11:59:04.649Z,2.65
2023-03-27T12:01:38.671Z,3.78
2023-03-27T12:04:14.707Z,2.78
2023-03-27T12:07:12.064Z,1.60
2023-03-27T12:09:57.299Z,2.53
2023-03-27T12:12:56.762Z,2.92
2023-03-27T12:15:35.944Z,2.28
2023-03-27T12:18:10.359Z,2.22
2023-03-27T12:20:53.027Z,1.90
2023-03-27T12:23:38.029Z,2.50
2023-03-27T12:26:40.027Z,2.50
2023-03-27T12:29:34.612Z,2.40
2023-03-27T12:32:16.949Z,2.42
2023-03-27T12:34:55.201Z,2.17
2023-03-27T12:37:31.217Z,2.15
2023-03-27T12:40:10.604Z,1.85
2023-03-27T12:42:45.596Z,2.20
2023-03-27T12:45:19.703Z,2.30
2023-03-27T12:48:10.208Z,2.08
2023-03-27T12:50:44.178Z,2.45
2023-03-27T12:53:21.908Z,2.15
2023-03-27T12:55:51.984Z,2.00
2023-03-27T12:58:38.468Z,2.10
2023-03-27T13:01:23.493Z,1.50
2023-03-27T13:04:10.177Z,2.30
2023-03-27T13:06:43.862Z,1.95
2023-03-27T13:09:29.567Z,2.08
2023-03-27T13:12:15.357Z,2.00
2023-03-27T13:15:01.418Z,2.50
2023-03-27T13:17:49.526Z,1.88
2023-03-27T13:20:27.535Z,1.92
2023-03-27T13:23:06.218Z,1.60
2023-03-27T13:25:57.082Z,1.70
2023-03-27T13:28:36.335Z,1.58
2023-03-27T13:31:16.884Z,1.40
2023-03-27T13:34:14.857Z,1.90
2023-03-27T13:36:50.003Z,2.03
2023-03-27T13:39:42.240Z,1.42
2023-03-27T13:42:14.737Z,1.38
2023-03-27T13:45:01.506Z,1.80
2023-03-27T13:47:48.835Z,1.63
2023-03-27T13:50:24.091Z,1.27
2023-03-27T13:53:08.516Z,1.80
2023-03-27T13:56:09.831Z,1.85
2023-03-27T13:59:14.994Z,1.13
2023-03-27T14:01:52.284Z,1.67
2023-03-27T14:04:41.061Z,1.38
2023-03-27T14:07:22.505Z,1.50
2023-03-27T14:10:12.888Z,1.70
2023-03-27T14:12:56.283Z,1.60
2023-03-27T14:15:45.117Z,1.35
2023-03-27T14:18:40.970Z,1.30
2023-03-27T14:21:24.516Z,1.70
2023-03-27T14:24:06.829Z,1.55
2023-03-27T14:26:52.190Z,1.13
2023-03-27T14:29:21.884Z,1.40
2023-03-27T14:31:54.104Z,1.42
2023-03-27T14:34:54.279Z,1.75
2023-03-27T14:37:42.092Z,1.60
2023-03-27T14:40:39.539Z,1.85
2023-03-27T14:43:10.951Z,1.38
2023-03-27T14:45:42.121Z,1.80
2023-03-27T14:48:19.465Z,1.35
2023-03-27T14:50:51.815Z,1.08
2023-03-27T14:53:28.576Z,1.13
2023-03-27T14:56:33.809Z,1.83
2023-03-27T14:59:13.975Z,2.35
2023-03-27T15:01:54.079Z,1.90
2023-03-27T15:04:24.892Z,1.48
2023-03-27T15:06:57.105Z,1.50
2023-03-27T15:09:49.802Z,1.60
2023-03-27T15:12:40.630Z,1.88
2023-03-27T15:15:24.999Z,1.75
2023-03-27T15:17:59.930Z,1.45
2023-03-27T15:20:32.005Z,1.75
2023-03-27T15:23:04.242Z,1.20
2023-03-27T15:25:44.884Z,1.35
2023-03-27T15:28:20.061Z,1.40
2023-03-27T15:30:51.619Z,1.48
2023-03-27T15:33:23.504Z,1.33
2023-03-27T15:35:56.373Z,1.83
2023-03-27T15:38:29.122Z,1.80
2023-03-27T15:41:05.603Z,1.50
2023-03-27T15:43:36.670Z,1.33
2023-03-27T15:46:16.157Z,1.15
2023-03-27T15:48:49.458Z,1.60
2023-03-27T15:51:30.673Z,1.40
2023-03-27T15:54:00.672Z,2.10
2023-03-27T15:56:38.876Z,1.55
2023-03-27T15:59:09.848Z,1.50
2023-03-27T16:01:41.104Z,1.65
2023-03-27T16:04:12.290Z,1.60
2023-03-27T16:06:44.553Z,1.15
2023-03-27T16:09:23.981Z,1.00
2023-03-27T16:14:34.513Z,1.50
2023-03-27T16:17:19.880Z,1.60
2023-03-27T16:19:54.334Z,1.45
2023-03-27T16:22:27.823Z,1.20
2023-03-27T16:24:58.073Z,1.42
2023-03-27T16:27:30.221Z,1.48
2023-03-27T16:30:02.539Z,0.88
2023-03-27T16:32:32.935Z,1.60
2023-03-27T16:35:02.809Z,1.30
2023-03-27T16:37:32.511Z,1.52
2023-03-27T16:40:02.813Z,1.50
2023-03-27T16:42:32.879Z,1.42
2023-03-27T16:45:05.570Z,1.60
2023-03-27T16:47:35.415Z,1.30
2023-03-27T16:50:10.856Z,1.15
2023-03-27T16:52:41.872Z,1.35
2023-03-27T16:55:14.050Z,1.48
2023-03-27T16:57:46.259Z,1.30
2023-03-27T17:00:20.278Z,1.25
2023-03-27T17:02:50.370Z,1.55
2023-03-27T17:05:20.095Z,1.67
2023-03-27T17:07:49.956Z,1.20
2023-03-27T17:10:19.894Z,1.35
2023-03-27T17:12:49.602Z,0.80
2023-03-27T17:15:21.984Z,0.90
2023-03-27T17:17:53.229Z,1.13
2023-03-27T17:20:23.168Z,0.90
2023-03-27T17:22:52.988Z,2.97
2023-03-27T17:25:22.658Z,2.47
2023-03-27T17:27:52.539Z,1.30
2023-03-27T17:30:38.135Z,0.95
2023-03-27T17:33:11.169Z,1.10
2023-03-27T17:35:41.228Z,0.93
2023-03-27T17:38:11.101Z,1.83
2023-03-27T17:40:41.991Z,1.23
2023-03-27T17:43:12.605Z,1.27
2023-03-27T17:45:45.955Z,1.63
2023-03-27T17:48:15.682Z,1.23
2023-03-27T17:50:49.702Z,0.70
2023-03-27T17:53:24.661Z,1.10
2023-03-27T17:55:54.410Z,1.15
2023-03-27T17:58:26.489Z,1.10
2023-03-27T18:00:58.832Z,0.90
2023-03-27T18:03:28.742Z,1.17
2023-03-27T18:05:58.963Z,1.73
2023-03-27T18:08:28.903Z,1.83
2023-03-27T18:10:58.689Z,2.63
2023-03-27T18:13:28.603Z,1.83
2023-03-27T18:16:02.330Z,3.58
2023-03-27T18:18:33.358Z,2.55
2023-03-27T18:21:03.036Z,3.00
2023-03-27T18:23:33.074Z,2.90
2023-03-27T18:26:05.194Z,1.90
2023-03-27T18:28:34.892Z,2.10
2023-03-27T18:31:08.394Z,1.77
2023-03-27T18:33:38.404Z,1.48
2023-03-27T18:36:10.954Z,1.90
2023-03-27T18:38:42.187Z,2.10
2023-03-27T18:41:12.192Z,2.03
2023-03-27T18:43:41.912Z,2.05
2023-03-27T18:46:17.279Z,3.67
2023-03-27T18:48:49.186Z,2.65
2023-03-27T18:51:20.453Z,2.78
2023-03-27T18:53:50.120Z,6.30
2023-03-27T18:56:21.314Z,3.75
2023-03-27T18:58:51.034Z,4.40
2023-03-27T19:01:23.465Z,4.38
2023-03-27T19:03:54.190Z,3.58
2023-03-27T19:06:25.624Z,5.20
2023-03-27T19:08:55.508Z,2.75
2023-03-27T19:11:25.629Z,2.55
2023-03-27T19:14:13.733Z,2.87
2023-03-27T19:17:14.875Z,2.08
2023-03-27T19:20:12.245Z,3.13
2023-03-27T19:22:52.345Z,2.90
2023-03-27T19:25:35.608Z,2.17
2023-03-27T19:28:05.753Z,3.80
2023-03-27T19:30:35.950Z,3.10
2023-03-27T19:33:11.579Z,1.83
2023-03-27T19:35:42.481Z,2.03
2023-03-27T19:38:12.258Z,3.22
2023-03-27T19:40:43.636Z,1.77
2023-03-27T19:43:15.884Z,2.03
2023-03-27T19:46:08.178Z,2.95
2023-03-27T19:48:47.722Z,2.47
2023-03-27T19:51:27.937Z,1.83
2023-03-27T19:53:57.900Z,4.40
2023-03-27T19:56:29.444Z,2.38
2023-03-27T19:58:59.151Z,3.67
2023-03-27T20:01:28.867Z,5.70
2023-03-27T20:04:01.584Z,3.95
2023-03-27T20:06:31.316Z,1.98
2023-03-27T20:09:01.258Z,2.38
2023-03-27T20:11:31.149Z,3.97
2023-03-27T20:14:01.088Z,3.63
2023-03-27T20:16:31.517Z,2.40
2023-03-27T20:19:06.557Z,2.42
2023-03-27T20:21:37.850Z,1.98
2023-03-27T20:24:10.690Z,2.30
2023-03-27T20:26:48.555Z,2.35
2023-03-27T20:29:25.205Z,2.20
2023-03-27T20:31:54.986Z,2.90
2023-03-27T20:34:27.345Z,3.00
2023-03-27T20:36:59.214Z,3.45
2023-03-27T20:39:47.528Z,2.33
2023-03-27T20:42:18.039Z,2.45
2023-03-27T20:44:55.194Z,2.45
2023-03-27T20:47:25.011Z,2.08
2023-03-27T20:49:59.182Z,2.30
2023-03-27T20:52:28.882Z,3.67
2023-03-27T20:54:58.570Z,2.88
2023-03-27T20:57:28.352Z,3.88
2023-03-27T20:59:58.070Z,2.22
2023-03-27T21:02:27.796Z,4.43
2023-03-27T21:05:00.153Z,2.95
2023-03-27T21:07:29.854Z,3.15
2023-03-27T21:09:59.557Z,2.47
2023-03-27T21:12:29.399Z,2.25
2023-03-27T21:14:59.118Z,3.92
2023-03-27T21:17:28.792Z,4.18
2023-03-27T21:20:01.272Z,2.13
2023-03-27T21:22:31.051Z,2.13
2023-03-27T21:25:00.836Z,3.30
2023-03-27T21:27:31.196Z,3.58
2023-03-27T21:30:01.813Z,3.17
2023-03-27T21:32:31.608Z,2.55
2023-03-27T21:35:04.034Z,2.17
2023-03-27T21:37:37.007Z,3.08
2023-03-27T21:40:07.684Z,3.22
2023-03-27T21:42:37.508Z,2.78
2023-03-27T21:45:07.726Z,2.80
2023-03-27T21:47:47.285Z,2.42
2023-03-27T21:50:20.516Z,3.10
2023-03-27T21:52:50.172Z,3.30
2023-03-27T21:55:19.921Z,3.10
2023-03-27T21:57:49.647Z,1.25
2023-03-27T22:00:19.663Z,3.35
2023-03-27T22:02:49.356Z,2.97
2023-03-27T22:05:21.738Z,2.97
2023-03-27T22:07:51.506Z,5.45
2023-03-27T22:10:21.626Z,2.58
2023-03-27T22:12:51.279Z,4.15
2023-03-27T22:15:21.052Z,3.00
2023-03-27T22:17:51.005Z,2.25
2023-03-27T22:20:23.506Z,3.10
2023-03-27T22:22:53.219Z,3.10
2023-03-27T22:25:22.932Z,1.27
2023-03-27T22:27:53.094Z,1.65
2023-03-27T22:30:22.951Z,1.52
2023-03-27T22:32:52.732Z,1.70
2023-03-27T22:35:25.155Z,0.98
2023-03-27T22:37:55.084Z,2.08
2023-03-27T22:40:24.791Z,3.33
2023-03-27T22:42:54.479Z,2.10
2023-03-27T22:45:24.190Z,2.38
2023-03-27T22:47:54.005Z,2.30
2023-03-27T22:50:26.413Z,1.77
2023-03-27T22:52:56.062Z,2.63
2023-03-27T22:55:25.747Z,1.83
2023-03-27T22:57:55.587Z,2.85
2023-03-27T23:00:25.580Z,3.60
2023-03-27T23:02:55.355Z,1.00
2023-03-27T23:05:27.686Z,0.70
2023-03-27T23:07:57.385Z,1.92
2023-03-27T23:10:27.090Z,1.90
2023-03-27T23:12:56.735Z,1.48
2023-03-27T23:15:29.769Z,1.80
2023-03-27T23:18:00.262Z,1.60
2023-03-27T23:20:32.666Z,3.85
2023-03-27T23:23:02.370Z,3.20
2023-03-27T23:25:32.090Z,3.58
2023-03-27T23:28:01.777Z,3.35
2023-03-27T23:30:31.486Z,2.83
2023-03-27T23:33:01.542Z,3.67
2023-03-27T23:35:33.877Z,3.05
2023-03-27T23:38:03.602Z,2.30
2023-03-27T23:40:35.347Z,1.90
2023-03-27T23:43:05.002Z,2.08
2023-03-27T23:45:34.737Z,2.92
2023-03-27T23:48:04.452Z,2.92
2023-03-27T23:50:36.783Z,3.30
2023-03-27T23:53:06.461Z,3.05
2023-03-27T23:55:36.264Z,1.38
2023-03-27T23:58:06.279Z,1.13
